Time;durP1;ratioP1;P1;durP2;ratioP2;P2;SDS_P1;SDS_P2;PMS_P1;PMS_P2;Temp;Humidity;BMP_temperature;BMP_pressure;BME280_temperature;BME280_humidity;BME280_pressure;Samples;Min_cycle;Max_cycle;Signal;HPM_P1;HPM_P2
2023/08/22 00:01:28;;;;;;;22.03;20.63;;;25.50;99.90;;;;;;4918316;29;20573;-85
2023/08/22 00:04:00;;;;;;;21.10;20.03;;;25.50;99.90;;;;;;4922250;29;20472;-86
2023/08/22 00:06:31;;;;;;;22.23;20.47;;;25.50;99.90;;;;;;4905148;29;20458;-88
2023/08/22 00:09:03;;;;;;;22.30;20.83;;;25.50;99.90;;;;;;4906231;29;20492;-84
2023/08/22 00:11:33;;;;;;;20.93;19.93;;;25.40;99.90;;;;;;4907665;29;20464;-84
2023/08/22 00:14:07;;;;;;;20.90;19.60;;;25.40;99.90;;;;;;4905354;29;20492;-87
2023/08/22 00:16:39;;;;;;;21.50;20.30;;;25.30;99.90;;;;;;4905599;29;20466;-84
2023/08/22 00:19:13;;;;;;;21.30;20.10;;;25.30;99.90;;;;;;4908290;29;20941;-85
2023/08/22 00:21:42;;;;;;;20.77;19.63;;;25.30;99.90;;;;;;4903081;29;20497;-86
2023/08/22 00:24:14;;;;;;;20.90;19.80;;;25.30;1.00;;;;;;4921855;29;20459;-84
2023/08/22 00:26:42;;;;;;;20.33;19.43;;;25.20;1.00;;;;;;4906998;29;20467;-84
2023/08/22 00:29:15;;;;;;;20.40;19.40;;;25.20;1.00;;;;;;4906409;29;20501;-88
2023/08/22 00:31:50;;;;;;;21.50;20.33;;;25.20;1.00;;;;;;4908053;29;20477;-87
2023/08/22 00:34:19;;;;;;;20.47;19.40;;;25.30;1.00;;;;;;4906317;29;20455;-86
2023/08/22 00:36:53;;;;;;;21.00;19.80;;;25.20;1.00;;;;;;4922100;29;20517;-84
2023/08/22 00:39:32;;;;;;;21.23;19.80;;;25.30;1.00;;;;;;4908538;29;20470;-85
2023/08/22 00:42:01;;;;;;;21.43;20.13;;;25.20;1.00;;;;;;4907475;29;20461;-86
2023/08/22 00:44:29;;;;;;;21.03;19.93;;;25.20;1.00;;;;;;4909954;29;20457;-86
2023/08/22 00:47:07;;;;;;;21.33;20.03;;;25.20;1.00;;;;;;4908441;29;20968;-86
2023/08/22 00:49:40;;;;;;;21.53;20.33;;;25.10;1.00;;;;;;4908595;29;20508;-88
2023/08/22 00:52:10;;;;;;;22.67;21.53;;;25.10;1.00;;;;;;4906226;29;20466;-86
2023/08/22 00:54:42;;;;;;;21.57;20.37;;;25.10;1.00;;;;;;4910245;29;20462;-84
2023/08/22 00:57:15;;;;;;;20.70;19.53;;;25.10;1.00;;;;;;4922711;29;20538;-85
2023/08/22 00:59:47;;;;;;;21.70;20.63;;;25.10;1.00;;;;;;4906404;29;20475;-85
2023/08/22 01:02:21;;;;;;;21.10;19.97;;;25.00;1.00;;;;;;4908382;29;20465;-85
2023/08/22 01:04:50;;;;;;;21.13;19.97;;;25.00;1.00;;;;;;4906297;29;20454;-85
2023/08/22 01:07:30;;;;;;;22.47;21.27;;;25.00;1.00;;;;;;4908935;29;20557;-86
2023/08/22 01:10:05;;;;;;;21.93;20.53;;;25.00;1.00;;;;;;4908385;29;20474;-84
2023/08/22 01:12:40;;;;;;;21.43;20.23;;;24.90;1.00;;;;;;4908320;29;20464;-85
2023/08/22 01:15:21;;;;;;;20.23;18.83;;;24.80;46.60;;;;;;4907807;29;20597;-85
2023/08/22 01:17:53;;;;;;;21.37;20.17;;;24.80;27.20;;;;;;4925035;29;20956;-84
2023/08/22 01:20:22;;;;;;;20.50;19.40;;;24.90;1.00;;;;;;4905955;29;20450;-86
2023/08/22 01:22:57;;;;;;;20.13;19.13;;;24.80;1.00;;;;;;4907495;29;20461;-86
2023/08/22 01:25:27;;;;;;;21.07;19.77;;;24.80;3.50;;;;;;4906291;29;20457;-85
2023/08/22 01:28:11;;;;;;;22.90;21.50;;;24.80;64.50;;;;;;4910505;29;20486;-85
2023/08/22 01:30:50;;;;;;;21.53;20.23;;;24.80;3.00;;;;;;4907003;29;20461;-88
2023/08/22 01:33:27;;;;;;;20.40;19.37;;;24.80;1.00;;;;;;4907429;29;20502;-85
2023/08/22 01:35:57;;;;;;;21.70;20.40;;;24.70;1.00;;;;;;4910010;29;21028;-86
2023/08/22 01:38:32;;;;;;;21.50;20.30;;;24.70;22.30;;;;;;4903726;29;20486;-84
2023/08/22 01:41:04;;;;;;;20.90;19.80;;;24.70;29.50;;;;;;4904367;29;20543;-84
2023/08/22 01:43:36;;;;;;;20.80;19.67;;;24.70;8.20;;;;;;4920227;29;20470;-85
2023/08/22 01:46:07;;;;;;;21.90;20.70;;;24.70;33.60;;;;;;4902058;29;20501;-86
2023/08/22 01:48:35;;;;;;;20.97;19.97;;;24.60;71.90;;;;;;4904500;29;20573;-84
2023/08/22 01:51:06;;;;;;;20.80;19.50;;;24.60;99.90;;;;;;4906549;29;20469;-85
2023/08/22 01:53:37;;;;;;;20.87;19.73;;;24.60;99.90;;;;;;4905047;29;20449;-84
2023/08/22 01:56:05;;;;;;;20.23;19.33;;;24.60;99.90;;;;;;4910811;29;20457;-86
2023/08/22 01:58:34;;;;;;;20.90;19.80;;;24.60;99.90;;;;;;4908047;29;21083;-87
2023/08/22 02:01:09;;;;;;;20.57;19.40;;;24.60;99.90;;;;;;4905258;29;20493;-85
2023/08/22 02:03:38;;;;;;;20.10;19.20;;;24.50;99.90;;;;;;4906644;29;20959;-84
2023/08/22 02:06:09;;;;;;;22.07;20.80;;;24.50;99.90;;;;;;4919646;29;20513;-87
2023/08/22 02:08:42;;;;;;;21.77;20.50;;;24.50;99.90;;;;;;4906869;29;20493;-88
2023/08/22 02:11:14;;;;;;;20.67;19.67;;;24.50;99.90;;;;;;4902681;29;20461;-86
2023/08/22 02:13:45;;;;;;;21.00;19.80;;;24.50;99.90;;;;;;4903064;29;20451;-86
2023/08/22 02:16:15;;;;;;;21.00;19.87;;;24.50;99.90;;;;;;4901685;29;20474;-84
2023/08/22 02:18:47;;;;;;;20.97;19.63;;;24.50;99.90;;;;;;4905333;29;20526;-85
2023/08/22 02:21:17;;;;;;;20.23;19.33;;;24.40;99.90;;;;;;4906516;29;20465;-84
2023/08/22 02:23:47;;;;;;;21.37;20.10;;;24.40;99.90;;;;;;4904315;29;20455;-84
2023/08/22 02:26:22;;;;;;;21.53;20.33;;;24.40;99.90;;;;;;4904403;29;21054;-85
2023/08/22 02:28:52;;;;;;;20.93;19.73;;;24.30;99.90;;;;;;4901084;29;21019;-85
2023/08/22 02:31:25;;;;;;;22.10;20.90;;;24.40;99.90;;;;;;4904311;29;20453;-86
2023/08/22 02:33:54;;;;;;;21.83;20.77;;;24.40;99.90;;;;;;4903730;29;20504;-85
2023/08/22 02:36:25;;;;;;;22.20;21.00;;;24.30;99.90;;;;;;4905667;29;20445;-85
2023/08/22 02:38:58;;;;;;;21.13;20.03;;;24.30;99.90;;;;;;4903745;29;21057;-86
2023/08/22 02:41:29;;;;;;;22.40;21.00;;;24.30;99.90;;;;;;4903527;29;20956;-85
2023/08/22 02:43:57;;;;;;;20.17;19.27;;;24.30;99.90;;;;;;4902467;29;20553;-85
2023/08/22 02:46:29;;;;;;;20.67;19.57;;;24.30;99.90;;;;;;4900505;29;20821;-84
2023/08/22 02:48:57;;;;;;;21.20;20.00;;;24.30;99.90;;;;;;4902646;29;20503;-85
2023/08/22 02:51:26;;;;;;;20.77;19.77;;;24.30;99.90;;;;;;4904789;29;20487;-88
2023/08/22 02:54:00;;;;;;;21.70;20.40;;;24.20;99.90;;;;;;4901203;29;20462;-86
2023/08/22 02:56:29;;;;;;;20.50;19.47;;;24.20;99.90;;;;;;4904213;29;20450;-85
2023/08/22 02:58:57;;;;;;;20.50;19.50;;;24.20;99.90;;;;;;4903243;29;21091;-85
2023/08/22 03:01:29;;;;;;;22.30;21.00;;;24.20;99.90;;;;;;4905248;29;20474;-85
2023/08/22 03:03:57;;;;;;;22.30;20.90;;;24.10;99.90;;;;;;4903988;29;20473;-86
2023/08/22 03:06:28;;;;;;;22.20;20.90;;;24.10;99.90;;;;;;4901956;29;20450;-87
2023/08/22 03:09:00;;;;;;;20.67;19.57;;;24.10;1.00;;;;;;4901384;29;21003;-85
2023/08/22 03:11:32;;;;;;;20.87;19.87;;;24.00;1.00;;;;;;4903616;29;20461;-86
2023/08/22 03:14:02;;;;;;;21.67;20.57;;;24.10;99.90;;;;;;4905166;29;20838;-87
2023/08/22 03:16:35;;;;;;;21.40;20.30;;;24.00;1.00;;;;;;4901776;29;20453;-85
2023/08/22 03:19:07;;;;;;;20.53;19.50;;;24.10;99.90;;;;;;4902987;29;20474;-84
2023/08/22 03:21:35;;;;;;;21.43;20.43;;;24.10;99.90;;;;;;4901455;29;20462;-85
2023/08/22 03:24:11;;;;;;;21.73;20.43;;;24.00;99.90;;;;;;4905381;29;20458;-85
2023/08/22 03:26:40;;;;;;;22.13;20.73;;;24.00;99.90;;;;;;4919844;29;20465;-85
2023/08/22 03:29:08;;;;;;;21.30;20.20;;;23.90;99.90;;;;;;4900835;29;20613;-84
2023/08/22 03:31:37;;;;;;;20.37;19.33;;;24.00;99.90;;;;;;4902186;29;20859;-84
2023/08/22 03:34:09;;;;;;;21.40;20.17;;;23.90;99.90;;;;;;4908496;29;20458;-85
2023/08/22 03:36:45;;;;;;;21.00;19.80;;;24.00;99.90;;;;;;4907955;29;20453;-84
2023/08/22 03:39:17;;;;;;;22.43;21.13;;;24.00;99.90;;;;;;4909252;29;20491;-85
2023/08/22 03:41:46;;;;;;;20.77;19.67;;;23.90;99.90;;;;;;4909783;29;20469;-85
2023/08/22 03:44:15;;;;;;;22.57;21.17;;;23.90;99.90;;;;;;4913446;29;20461;-85
2023/08/22 03:46:47;;;;;;;22.33;21.03;;;23.90;99.90;;;;;;4907432;29;20450;-85
2023/08/22 03:49:19;;;;;;;23.53;21.80;;;23.90;99.90;;;;;;4907100;29;20477;-85
2023/08/22 03:51:51;;;;;;;21.23;20.13;;;23.90;99.90;;;;;;4908653;29;20479;-86
2023/08/22 03:54:24;;;;;;;20.80;19.60;;;23.90;99.90;;;;;;4911414;29;20489;-85
2023/08/22 03:57:06;;;;;;;22.17;21.00;;;23.80;99.90;;;;;;4910942;29;20452;-86
2023/08/22 03:59:38;;;;;;;21.30;20.20;;;23.80;99.90;;;;;;4907317;29;20483;-85
2023/08/22 04:02:10;;;;;;;21.80;20.40;;;23.70;1.00;;;;;;4905503;29;20473;-85
2023/08/22 04:04:42;;;;;;;22.80;21.47;;;23.80;1.00;;;;;;4910039;29;20952;-84
2023/08/22 04:07:13;;;;;;;23.50;21.90;;;23.80;1.00;;;;;;4922715;29;20454;-85
2023/08/22 04:09:46;;;;;;;21.87;20.77;;;23.70;1.00;;;;;;4908366;29;21080;-85
2023/08/22 04:12:14;;;;;;;21.30;20.20;;;23.70;1.00;;;;;;4906270;29;20468;-86
2023/08/22 04:14:43;;;;;;;22.00;20.90;;;23.70;1.00;;;;;;4909045;29;20474;-85
2023/08/22 04:17:15;;;;;;;22.87;21.57;;;23.60;1.00;;;;;;4925099;29;21446;-84
2023/08/22 04:19:45;;;;;;;22.50;21.27;;;23.70;1.00;;;;;;4904873;29;20851;-84
2023/08/22 04:22:18;;;;;;;21.80;20.60;;;23.70;1.00;;;;;;4907918;29;20502;-87
2023/08/22 04:24:51;;;;;;;22.63;21.53;;;23.70;1.00;;;;;;4908360;29;20854;-85
2023/08/22 04:27:22;;;;;;;21.47;20.30;;;23.60;1.00;;;;;;4906105;29;20450;-84
2023/08/22 04:29:52;;;;;;;21.60;20.40;;;23.60;1.00;;;;;;4906178;29;21337;-85
2023/08/22 04:32:25;;;;;;;21.20;20.20;;;23.60;1.00;;;;;;4905046;29;20450;-84
2023/08/22 04:35:04;;;;;;;21.40;20.20;;;23.60;1.00;;;;;;4908858;29;20466;-84
2023/08/22 04:37:35;;;;;;;22.17;21.00;;;23.50;1.00;;;;;;4909533;29;20481;-84
2023/08/22 04:40:09;;;;;;;23.17;21.87;;;23.50;1.00;;;;;;4907317;29;20522;-90
2023/08/22 04:42:40;;;;;;;22.50;21.13;;;23.50;1.00;;;;;;4921833;29;20481;-85
2023/08/22 04:45:14;;;;;;;22.63;21.33;;;23.50;1.00;;;;;;4907074;29;20470;-83
2023/08/22 04:47:46;;;;;;;21.90;20.60;;;23.50;1.00;;;;;;4905703;29;20465;-85
2023/08/22 04:50:15;;;;;;;22.33;20.93;;;23.60;1.00;;;;;;4907518;29;20934;-85
2023/08/22 04:52:46;;;;;;;22.27;21.07;;;23.50;1.00;;;;;;4906087;29;20459;-84
2023/08/22 04:55:23;;;;;;;22.03;20.87;;;23.50;1.00;;;;;;4907695;29;20458;-85
2023/08/22 04:57:57;;;;;;;22.70;21.27;;;23.50;1.00;;;;;;4906877;29;20454;-85
2023/08/22 05:00:28;;;;;;;21.40;20.20;;;23.50;1.00;;;;;;4908816;29;20918;-84
2023/08/22 05:02:59;;;;;;;22.30;21.20;;;23.50;1.00;;;;;;4909634;29;20466;-86
2023/08/22 05:05:30;;;;;;;22.77;21.60;;;23.50;1.00;;;;;;4905146;29;20454;-84
2023/08/22 05:07:59;;;;;;;21.70;20.53;;;23.50;1.00;;;;;;4908701;29;20921;-84
2023/08/22 05:10:33;;;;;;;22.60;21.30;;;23.50;1.00;;;;;;4906718;29;20517;-85
2023/08/22 05:13:07;;;;;;;23.20;21.77;;;23.50;1.00;;;;;;4922021;29;20474;-86
2023/08/22 05:15:38;;;;;;;22.20;21.10;;;23.50;1.00;;;;;;4909820;29;20458;-86
2023/08/22 05:18:09;;;;;;;21.50;20.40;;;23.60;1.00;;;;;;4907272;29;20474;-85
2023/08/22 05:20:43;;;;;;;22.10;21.00;;;23.70;1.00;;;;;;4907451;29;20455;-85
2023/08/22 05:23:14;;;;;;;21.67;20.67;;;23.60;1.00;;;;;;4906946;29;20453;-84
2023/08/22 05:25:44;;;;;;;22.80;21.20;;;23.60;1.00;;;;;;4910607;29;20467;-86
2023/08/22 05:28:22;;;;;;;22.80;21.60;;;23.60;1.00;;;;;;4904953;29;20601;-85
2023/08/22 05:30:53;;;;;;;22.80;21.40;;;23.60;1.00;;;;;;4918406;29;20489;-86
2023/08/22 05:33:29;;;;;;;22.83;21.63;;;23.60;1.00;;;;;;4911422;29;20536;-84
2023/08/22 05:36:03;;;;;;;22.23;21.03;;;23.60;1.00;;;;;;4904800;29;20454;-86
2023/08/22 05:38:37;;;;;;;21.10;20.07;;;23.70;1.00;;;;;;4904766;29;20480;-85
2023/08/22 05:41:06;;;;;;;22.47;21.20;;;23.70;1.00;;;;;;4903407;29;20454;-84
2023/08/22 05:43:37;;;;;;;22.70;21.50;;;23.70;99.90;;;;;;4906886;29;20457;-87
2023/08/22 05:46:14;;;;;;;22.20;21.10;;;23.70;1.00;;;;;;4907919;29;20458;-82
2023/08/22 05:48:46;;;;;;;22.83;21.73;;;23.80;99.90;;;;;;4902306;29;20514;-86
2023/08/22 05:51:15;;;;;;;24.07;22.33;;;23.80;99.90;;;;;;4901868;29;20490;-85
2023/08/22 05:53:44;;;;;;;22.70;21.40;;;23.90;99.90;;;;;;4905156;29;20451;-85
2023/08/22 05:56:19;;;;;;;23.07;21.67;;;24.00;99.90;;;;;;4906460;29;20574;-87
2023/08/22 05:58:48;;;;;;;22.50;20.90;;;24.00;99.90;;;;;;4902984;29;20482;-85
2023/08/22 06:01:18;;;;;;;22.50;21.30;;;24.20;99.90;;;;;;4905170;29;20472;-85
2023/08/22 06:03:47;;;;;;;22.37;21.20;;;24.20;99.90;;;;;;4903448;29;20487;-86
2023/08/22 06:06:19;;;;;;;22.73;21.57;;;24.30;57.30;;;;;;4902061;29;21712;-87
2023/08/22 06:08:52;;;;;;;22.10;20.97;;;24.50;1.00;;;;;;4904422;29;20565;-84
2023/08/22 06:11:22;;;;;;;22.70;21.40;;;24.70;1.00;;;;;;4903277;29;20478;-85
2023/08/22 06:13:57;;;;;;;23.50;21.63;;;24.80;1.00;;;;;;4920868;29;20972;-84
2023/08/22 06:16:29;;;;;;;22.00;20.90;;;25.10;99.90;;;;;;4907836;29;20980;-85
2023/08/22 06:19:01;;;;;;;21.00;19.30;;;25.20;99.90;;;;;;4905819;29;20791;-87
2023/08/22 06:21:35;;;;;;;22.60;21.50;;;25.40;99.90;;;;;;4901815;29;21007;-87
2023/08/22 06:24:04;;;;;;;19.10;18.20;;;25.60;99.90;;;;;;4902933;29;20994;-85
2023/08/22 06:26:40;;;;;;;19.80;18.70;;;25.80;99.90;;;;;;4903775;29;20477;-85
2023/08/22 06:29:13;;;;;;;18.80;17.73;;;26.10;93.80;;;;;;4906822;29;21040;-84
2023/08/22 06:31:43;;;;;;;19.30;18.30;;;26.20;1.00;;;;;;4902239;29;20494;-85
2023/08/22 06:34:12;;;;;;;19.37;18.37;;;26.40;1.00;;;;;;4904810;29;20461;-85
2023/08/22 06:36:44;;;;;;;19.20;18.23;;;26.60;1.00;;;;;;4906689;29;20477;-85
2023/08/22 06:39:18;;;;;;;19.13;18.27;;;26.70;1.00;;;;;;4905906;29;20481;-86
2023/08/22 06:41:50;;;;;;;19.50;18.30;;;26.80;1.00;;;;;;4903853;29;21390;-86
2023/08/22 06:44:20;;;;;;;19.27;18.30;;;27.00;1.00;;;;;;4905556;29;20457;-84
2023/08/22 06:46:51;;;;;;;19.57;18.50;;;27.20;1.00;;;;;;4905711;29;20489;-87
2023/08/22 06:49:30;;;;;;;19.53;18.43;;;27.30;1.00;;;;;;4904018;29;21000;-85
2023/08/22 06:52:02;;;;;;;18.97;17.77;;;27.40;1.00;;;;;;4917197;29;20490;-84
2023/08/22 06:54:35;;;;;;;17.50;16.60;;;27.50;1.00;;;;;;4904107;29;20548;-85
2023/08/22 06:57:08;;;;;;;17.60;16.60;;;27.60;1.00;;;;;;4903824;29;21028;-85
2023/08/22 06:59:40;;;;;;;16.53;15.73;;;27.70;1.00;;;;;;4907380;29;20478;-86
2023/08/22 07:02:11;;;;;;;16.93;16.00;;;27.80;99.90;;;;;;4906639;29;20988;-84
2023/08/22 07:04:44;;;;;;;15.83;14.83;;;27.90;99.90;;;;;;4904455;29;20465;-85
2023/08/22 07:07:13;;;;;;;16.00;15.10;;;28.10;99.90;;;;;;4903455;29;20465;-85
2023/08/22 07:09:48;;;;;;;16.13;15.13;;;28.10;99.90;;;;;;4902859;29;20470;-85
2023/08/22 07:12:23;;;;;;;16.50;15.50;;;28.20;99.90;;;;;;4912592;29;20960;-84
2023/08/22 07:14:55;;;;;;;15.77;14.67;;;28.20;99.90;;;;;;4911481;29;20465;-85
2023/08/22 07:17:24;;;;;;;16.10;15.00;;;28.30;99.90;;;;;;4922516;29;20482;-88
2023/08/22 07:19:55;;;;;;;15.80;14.90;;;28.40;99.90;;;;;;4909223;29;20521;-87
2023/08/22 07:22:24;;;;;;;15.33;14.30;;;28.40;99.90;;;;;;4914136;29;20469;-85
2023/08/22 07:24:55;;;;;;;16.07;15.07;;;28.30;99.90;;;;;;4925812;29;20890;-85
2023/08/22 07:27:31;;;;;;;14.93;14.13;;;28.30;99.90;;;;;;4906745;29;20961;-86
2023/08/22 07:30:03;;;;;;;14.87;14.07;;;28.30;99.90;;;;;;4907659;29;21051;-88
2023/08/22 07:32:35;;;;;;;15.47;14.60;;;28.40;99.90;;;;;;4924469;29;20497;-85
2023/08/22 07:35:05;;;;;;;16.00;15.00;;;28.40;99.90;;;;;;4906259;29;20485;-84
2023/08/22 07:37:34;;;;;;;15.70;14.60;;;28.40;99.90;;;;;;4909675;29;20465;-87
2023/08/22 07:40:10;;;;;;;14.93;14.20;;;28.50;99.90;;;;;;4909378;29;20866;-86
2023/08/22 07:42:40;;;;;;;14.90;14.20;;;28.40;99.90;;;;;;4912387;29;20461;-87
2023/08/22 07:45:11;;;;;;;15.87;15.07;;;28.40;99.90;;;;;;4913089;29;20445;-84
2023/08/22 07:47:44;;;;;;;15.20;14.50;;;28.50;99.90;;;;;;4908895;29;20461;-85
2023/08/22 07:50:13;;;;;;;13.47;12.87;;;28.50;99.90;;;;;;4909709;29;21261;-85
2023/08/22 07:52:45;;;;;;;14.97;14.10;;;28.40;99.90;;;;;;4903756;29;20498;-85
2023/08/22 07:55:17;;;;;;;14.90;14.10;;;28.40;99.90;;;;;;4910601;29;20959;-85
2023/08/22 07:57:52;;;;;;;14.97;13.87;;;28.40;99.90;;;;;;4926437;29;20924;-84
2023/08/22 08:00:24;;;;;;;15.33;14.53;;;28.40;99.90;;;;;;4906684;29;20468;-85
2023/08/22 08:02:53;;;;;;;14.37;13.77;;;28.40;99.90;;;;;;4908580;29;20940;-85
2023/08/22 08:05:25;;;;;;;13.87;13.30;;;28.50;99.90;;;;;;4905122;29;20462;-86
2023/08/22 08:07:55;;;;;;;14.80;14.13;;;28.50;99.90;;;;;;4909795;29;20675;-86
2023/08/22 08:10:29;;;;;;;13.90;13.30;;;28.60;99.90;;;;;;4908863;29;20465;-86
2023/08/22 08:13:02;;;;;;;13.07;12.50;;;28.60;99.90;;;;;;4905408;29;20546;-85
2023/08/22 08:15:31;;;;;;;12.60;12.20;;;28.50;99.90;;;;;;4908571;29;20465;-85
2023/08/22 08:18:01;;;;;;;12.93;12.20;;;28.60;99.90;;;;;;4906916;29;20832;-84
2023/08/22 08:20:32;;;;;;;13.17;12.50;;;28.60;99.90;;;;;;4907621;29;20457;-88
2023/08/22 08:23:04;;;;;;;13.50;12.93;;;28.60;99.90;;;;;;4908024;29;20450;-85
2023/08/22 08:25:39;;;;;;;12.93;12.53;;;28.70;99.90;;;;;;4903545;29;20481;-85
2023/08/22 08:28:15;;;;;;;13.10;12.60;;;28.70;99.90;;;;;;4906649;29;20530;-85
2023/08/22 08:30:44;;;;;;;13.73;13.23;;;28.70;99.90;;;;;;4906858;29;20450;-85
2023/08/22 08:33:12;;;;;;;14.87;14.00;;;28.70;99.90;;;;;;4905629;29;20485;-86
2023/08/22 08:35:45;;;;;;;15.00;13.87;;;28.80;99.90;;;;;;4905481;29;20450;-85
2023/08/22 08:38:17;;;;;;;14.87;14.27;;;28.80;99.90;;;;;;4908112;29;21009;-85
2023/08/22 08:40:47;;;;;;;15.50;15.00;;;28.90;99.90;;;;;;4906213;29;20459;-86
2023/08/22 08:43:22;;;;;;;15.03;14.33;;;28.90;99.90;;;;;;4908393;29;20450;-85
2023/08/22 08:45:55;;;;;;;16.03;15.10;;;28.90;99.90;;;;;;4905384;29;21050;-85
2023/08/22 08:48:29;;;;;;;15.00;14.23;;;29.00;99.90;;;;;;4919201;29;20489;-85
2023/08/22 08:51:03;;;;;;;15.00;14.33;;;29.00;99.90;;;;;;4906857;29;20455;-84
2023/08/22 08:53:33;;;;;;;15.43;14.80;;;29.10;99.90;;;;;;4905758;29;20481;-86
2023/08/22 08:56:04;;;;;;;16.27;15.27;;;29.10;99.90;;;;;;4903410;29;20462;-84
2023/08/22 08:58:39;;;;;;;15.07;14.43;;;29.10;99.90;;;;;;4905272;29;21026;-86
2023/08/22 09:01:08;;;;;;;15.93;15.23;;;29.10;99.90;;;;;;4905372;29;20461;-85
2023/08/22 09:03:39;;;;;;;15.37;14.80;;;29.20;99.90;;;;;;4906362;29;20465;-86
2023/08/22 09:06:14;;;;;;;15.80;15.07;;;29.20;99.90;;;;;;4909896;29;20995;-84
2023/08/22 09:09:06;;;;;;;15.23;14.63;;;29.20;99.90;;;;;;4905968;29;20470;-86
2023/08/22 09:11:37;;;;;;;15.83;15.10;;;29.30;99.90;;;;;;4903545;29;20461;-85
2023/08/22 09:14:19;;;;;;;15.57;14.87;;;29.30;99.90;;;;;;4905395;29;20497;-85
2023/08/22 09:16:52;;;;;;;15.10;14.33;;;29.30;99.90;;;;;;4905057;29;21496;-86
2023/08/22 09:19:26;;;;;;;15.77;15.07;;;29.40;99.90;;;;;;4903842;29;20589;-86
2023/08/22 09:21:58;;;;;;;15.80;15.10;;;29.40;99.90;;;;;;4904203;29;20447;-85
2023/08/22 09:24:28;;;;;;;15.60;15.00;;;29.40;99.90;;;;;;4903274;29;20948;-88
2023/08/22 09:27:05;;;;;;;16.10;15.20;;;29.40;99.90;;;;;;4902710;29;20466;-84
2023/08/22 09:29:42;;;;;;;16.17;15.13;;;29.50;99.90;;;;;;4904135;29;21102;-85
2023/08/22 09:32:12;;;;;;;16.70;15.70;;;29.50;99.90;;;;;;4904920;29;20528;-86
2023/08/22 09:34:53;;;;;;;16.60;15.80;;;29.50;99.90;;;;;;4903343;29;20690;-87
2023/08/22 09:37:30;;;;;;;16.33;15.73;;;29.60;99.90;;;;;;4903626;29;20948;-86
2023/08/22 09:40:03;;;;;;;16.47;15.67;;;29.70;99.90;;;;;;4906145;29;21436;-85
2023/08/22 09:42:38;;;;;;;16.40;15.60;;;29.70;99.90;;;;;;4910654;29;20453;-88
2023/08/22 09:45:13;;;;;;;16.70;16.00;;;29.70;99.90;;;;;;4905431;29;20454;-86
2023/08/22 09:47:45;;;;;;;16.27;15.57;;;29.80;99.90;;;;;;4908083;29;20459;-84
2023/08/22 09:50:17;;;;;;;16.70;16.10;;;29.90;99.90;;;;;;4920049;29;20558;-86
2023/08/22 09:52:50;;;;;;;16.57;15.67;;;29.90;99.90;;;;;;4905272;29;20927;-85
2023/08/22 09:55:19;;;;;;;15.73;15.07;;;29.90;99.90;;;;;;4903586;29;20449;-85
2023/08/22 09:57:54;;;;;;;16.27;15.37;;;29.90;99.90;;;;;;4908241;29;20470;-86
2023/08/22 10:00:30;;;;;;;15.30;14.80;;;30.00;99.90;;;;;;4901531;29;20462;-86
2023/08/22 10:03:03;;;;;;;15.40;14.70;;;30.00;99.90;;;;;;4907027;29;20499;-86
2023/08/22 10:05:35;;;;;;;15.60;15.00;;;30.10;99.90;;;;;;4910946;29;20462;-84
2023/08/22 10:08:04;;;;;;;14.60;14.10;;;30.10;99.90;;;;;;4903592;29;20485;-85
2023/08/22 10:10:33;;;;;;;16.40;15.57;;;30.10;99.90;;;;;;4905560;29;20461;-86
2023/08/22 10:13:03;;;;;;;15.97;15.23;;;30.10;99.90;;;;;;4919713;29;20475;-84
2023/08/22 10:15:35;;;;;;;15.50;14.63;;;30.10;99.90;;;;;;4901653;29;20483;-85
2023/08/22 10:18:04;;;;;;;15.03;14.37;;;30.10;99.90;;;;;;4903207;29;20939;-85
2023/08/22 10:20:42;;;;;;;15.87;15.17;;;30.10;99.90;;;;;;4905720;29;20464;-85
2023/08/22 10:23:11;;;;;;;15.57;14.97;;;30.20;99.90;;;;;;4904385;29;20457;-85
2023/08/22 10:25:50;;;;;;;16.17;15.37;;;30.30;99.90;;;;;;4904219;29;20482;-85
2023/08/22 10:28:18;;;;;;;14.97;14.30;;;30.40;99.90;;;;;;4908985;29;20479;-84
2023/08/22 10:31:05;;;;;;;15.37;14.80;;;30.50;99.90;;;;;;4902375;29;20505;-86
2023/08/22 10:33:37;;;;;;;16.40;15.70;;;30.60;99.90;;;;;;4904482;29;20577;-90
2023/08/22 10:36:17;;;;;;;16.40;15.77;;;30.70;99.90;;;;;;4905127;29;20454;-86
2023/08/22 10:38:53;;;;;;;16.20;15.60;;;30.70;99.90;;;;;;4903951;29;20485;-87
2023/08/22 10:41:26;;;;;;;16.00;15.50;;;30.80;99.90;;;;;;4906418;29;21104;-85
2023/08/22 10:43:58;;;;;;;16.10;15.40;;;30.80;99.90;;;;;;4910119;29;20462;-87
2023/08/22 10:47:07;;;;;;;15.80;15.20;;;30.70;99.90;;;;;;4903470;29;20947;-86
2023/08/22 10:49:40;;;;;;;15.40;14.80;;;30.80;99.90;;;;;;4902265;29;20480;-86
2023/08/22 10:52:26;;;;;;;15.47;14.77;;;30.80;99.90;;;;;;4908046;29;20470;-85
2023/08/22 10:55:05;;;;;;;15.87;15.27;;;30.80;99.90;;;;;;4905149;29;20496;-86
2023/08/22 10:57:36;;;;;;;15.70;15.00;;;30.80;99.90;;;;;;4903369;29;20446;-87
2023/08/22 11:00:23;;;;;;;16.00;15.33;;;30.90;99.90;;;;;;4905964;29;20871;-85
2023/08/22 11:02:58;;;;;;;15.87;15.27;;;30.90;99.90;;;;;;4902855;29;20938;-86
2023/08/22 11:05:27;;;;;;;16.30;15.60;;;30.80;99.90;;;;;;4907044;29;20496;-87
2023/08/22 11:08:01;;;;;;;16.37;15.23;;;30.80;99.90;;;;;;4904440;29;20476;-87
2023/08/22 11:10:38;;;;;;;15.47;14.80;;;30.70;99.90;;;;;;4904027;29;20446;-86
2023/08/22 11:13:09;;;;;;;16.17;15.57;;;30.80;99.90;;;;;;4903804;29;20457;-86
2023/08/22 11:15:39;;;;;;;16.37;15.63;;;30.80;99.90;;;;;;4918516;29;20461;-86
2023/08/22 11:18:10;;;;;;;15.97;15.37;;;30.80;99.90;;;;;;4902981;29;20478;-84
2023/08/22 11:20:42;;;;;;;15.60;15.00;;;30.70;99.90;;;;;;4907384;29;20525;-85
2023/08/22 11:23:12;;;;;;;16.17;15.53;;;30.70;99.90;;;;;;4905514;29;20462;-86
2023/08/22 11:25:41;;;;;;;16.17;15.40;;;30.80;99.90;;;;;;4905345;29;20446;-87
2023/08/22 11:28:18;;;;;;;16.10;15.40;;;30.80;99.90;;;;;;4916636;29;20572;-85
2023/08/22 11:30:50;;;;;;;15.80;15.20;;;30.80;99.90;;;;;;4916657;29;20969;-85
2023/08/22 11:33:21;;;;;;;16.50;15.67;;;30.80;99.90;;;;;;4908720;29;20466;-86
2023/08/22 11:35:53;;;;;;;16.60;16.00;;;30.80;99.90;;;;;;4906828;29;20445;-85
2023/08/22 11:38:22;;;;;;;15.83;15.00;;;30.80;99.90;;;;;;4919104;29;20485;-86
2023/08/22 11:40:56;;;;;;;15.37;14.87;;;30.80;99.90;;;;;;4902318;29;20844;-85
2023/08/22 11:43:24;;;;;;;16.30;15.10;;;30.80;99.90;;;;;;4904609;29;20498;-85
2023/08/22 11:45:59;;;;;;;16.53;15.70;;;30.80;99.90;;;;;;4916032;29;20972;-88
2023/08/22 11:48:30;;;;;;;16.20;15.40;;;30.80;99.90;;;;;;4903497;29;20477;-84
2023/08/22 11:51:00;;;;;;;15.83;15.23;;;30.80;99.90;;;;;;4900343;29;20462;-86
2023/08/22 11:53:32;;;;;;;16.60;16.00;;;30.80;99.90;;;;;;4902069;29;20453;-88
2023/08/22 11:56:02;;;;;;;15.30;14.80;;;30.80;99.90;;;;;;4901853;29;20517;-85
2023/08/22 11:58:33;;;;;;;16.07;15.43;;;30.70;99.90;;;;;;4905750;29;20516;-86
2023/08/22 12:01:08;;;;;;;16.03;15.37;;;30.70;99.90;;;;;;4906230;29;21107;-85
2023/08/22 12:03:43;;;;;;;17.60;16.80;;;30.70;99.90;;;;;;4903575;29;20516;-84
2023/08/22 12:06:12;;;;;;;17.80;17.20;;;30.70;99.90;;;;;;4920947;29;20927;-85
2023/08/22 12:08:41;;;;;;;15.93;15.27;;;30.80;99.90;;;;;;4904712;29;21095;-85
2023/08/22 12:11:25;;;;;;;15.87;15.30;;;30.80;99.90;;;;;;4906046;29;20531;-84
2023/08/22 12:13:59;;;;;;;15.47;14.97;;;30.90;99.90;;;;;;4906630;29;20512;-87
2023/08/22 12:16:28;;;;;;;17.60;16.90;;;31.00;99.90;;;;;;4905077;29;20460;-87
2023/08/22 12:19:00;;;;;;;18.13;17.33;;;31.10;99.90;;;;;;4920582;29;20614;-86
2023/08/22 12:21:29;;;;;;;17.63;16.80;;;31.20;99.90;;;;;;4905140;29;20461;-86
2023/08/22 12:23:58;;;;;;;17.97;17.07;;;31.20;99.90;;;;;;4904908;29;20552;-85
2023/08/22 12:26:29;;;;;;;18.67;17.97;;;31.20;99.90;;;;;;4905953;29;20462;-85
2023/08/22 12:29:01;;;;;;;18.00;17.30;;;31.30;99.90;;;;;;4903720;29;20894;-87
2023/08/22 12:31:32;;;;;;;18.10;17.20;;;31.30;99.90;;;;;;4904156;29;20976;-86
2023/08/22 12:34:07;;;;;;;18.23;17.43;;;31.30;99.90;;;;;;4906625;29;20607;-88
2023/08/22 12:36:38;;;;;;;18.50;17.43;;;31.20;99.90;;;;;;4906434;29;20501;-86
2023/08/22 12:39:12;;;;;;;17.50;16.77;;;31.20;99.90;;;;;;4905697;29;20485;-86
2023/08/22 12:41:40;;;;;;;17.50;16.80;;;31.20;99.90;;;;;;4905567;29;20454;-85
2023/08/22 12:44:14;;;;;;;18.67;17.73;;;31.30;99.90;;;;;;4907896;29;20457;-87
2023/08/22 12:46:45;;;;;;;17.70;17.00;;;31.30;99.90;;;;;;4911190;29;20458;-86
2023/08/22 12:49:17;;;;;;;18.53;17.83;;;31.30;99.90;;;;;;4907718;29;20490;-86
2023/08/22 12:51:46;;;;;;;17.67;17.07;;;31.30;99.90;;;;;;4906323;29;20451;-85
2023/08/22 12:54:14;;;;;;;18.07;17.33;;;31.30;99.90;;;;;;4918267;29;20972;-85
2023/08/22 12:56:48;;;;;;;18.40;17.50;;;31.20;99.90;;;;;;4906924;29;20454;-86